< Typhoon 195603 1956 Season Typhoon 195605 >
Typhoon 195604 (NO-NAME)
General InformationTrack Information on Google Maps || Disaster Info.ResourceGoogle EarthGE AnimationAtom FeedGeoJSON
Detalied Best Track (Time Zone = UTC)
Year Month Day Hour Lat. Long. Pressure (hPa) Wind (kt) Class Image Chart
1956 6 16 00 20.0 159.0 1008 0 2 -- Chart
1956 6 16 06 20.0 157.2 1006 0 2 -- Chart
1956 6 16 12 20.0 155.2 1006 0 2 -- Chart
1956 6 16 18 20.0 155.2 1006 0 2 -- Chart
1956 6 17 00 20.0 155.2 1004 0 2 -- Chart
1956 6 17 06 20.0 155.2 1004 0 2 -- Chart
1956 6 17 12 19.8 154.1 1004 0 2 -- Chart
1956 6 17 18 19.7 153.3 1004 0 2 -- Chart
1956 6 18 00 19.8 152.5 1004 0 2 -- Chart
1956 6 18 06 20.1 152.2 1004 0 9 -- Chart
1956 6 18 12 20.2 152.0 1004 0 9 -- Chart
1956 6 18 18 20.5 151.7 1004 0 9 -- Chart
1956 6 19 00 20.8 151.5 1000 0 9 -- Chart
1956 6 19 06 20.9 150.5 1004 0 9 -- Chart
1956 6 19 12 21.3 150.2 1006 0 9 -- Chart
1956 6 19 18 21.8 149.9 1006 0 9 -- Chart
1956 6 20 00 22.5 149.4 1008 0 2 -- Chart
1956 6 20 06 22.9 149.1 1008 0 2 -- Chart
1956 6 20 12 23.2 148.8 1008 0 2 -- Chart
1956 6 20 18 23.7 148.4 1008 0 2 -- Chart
1956 6 21 00 24.0 148.0 1008 0 2 -- Chart
Japan Meteorological Agency Best Track Data | Correction Date : 1989-06-01
< Typhoon 195603 1956 Season Typhoon 195605 >

Help